createdAt,value
2022-11-11T06:05:01.650Z,99.90
2022-11-11T06:07:29.821Z,99.90
2022-11-11T06:10:18.586Z,99.90
2022-11-11T06:13:00.754Z,99.90
2022-11-11T06:15:29.046Z,99.90
2022-11-11T06:17:57.115Z,99.90
2022-11-11T06:20:26.908Z,99.90
2022-11-11T06:22:57.642Z,99.90
2022-11-11T06:25:44.455Z,99.90
2022-11-11T06:28:12.934Z,99.90
2022-11-11T06:30:51.128Z,99.90
2022-11-11T06:33:19.739Z,99.90
2022-11-11T06:35:49.942Z,99.90
2022-11-11T11:00:14.396Z,99.90
2022-11-11T11:02:50.192Z,99.90
2022-11-11T11:12:50.296Z,99.90
2022-11-11T11:15:21.908Z,99.90
2022-11-11T11:17:58.051Z,99.90
2022-11-11T11:20:26.296Z,99.90
2022-11-11T11:30:26.499Z,91.10
2022-11-11T11:32:58.710Z,89.60
2022-11-11T11:57:43.653Z,71.00
2022-11-11T12:07:54.800Z,64.30
2022-11-11T12:10:32.439Z,64.10
2022-11-11T12:21:12.632Z,56.10
2022-11-11T12:23:57.404Z,55.40
2022-11-11T12:34:06.366Z,52.80
2022-11-11T15:41:35.156Z,99.90
2022-11-11T15:44:04.005Z,99.90
2022-11-11T15:46:42.968Z,99.90
2022-11-11T15:49:15.260Z,99.90
2022-11-11T15:51:43.598Z,99.90
2022-11-11T15:54:19.752Z,99.90
2022-11-11T15:56:49.905Z,99.90
2022-11-11T15:59:19.546Z,99.90
2022-11-11T16:01:47.811Z,99.90
2022-11-11T16:04:53.345Z,99.90
2022-11-11T16:07:07.691Z,99.90
2022-11-11T16:09:39.296Z,99.90
2022-11-11T16:12:13.050Z,99.90
2022-11-11T16:14:44.675Z,99.90
2022-11-11T16:17:15.644Z,99.90
2022-11-11T16:19:49.431Z,99.90
2022-11-11T16:22:21.504Z,99.90
2022-11-11T16:24:50.919Z,99.90
2022-11-11T16:27:25.448Z,99.90
2022-11-11T16:29:53.614Z,99.90
2022-11-11T16:32:35.696Z,99.90
2022-11-11T16:35:23.142Z,99.90
2022-11-11T16:37:55.483Z,99.90
2022-11-11T16:40:28.097Z,99.90
2022-11-11T16:43:21.280Z,99.90
2022-11-11T16:45:53.629Z,99.90
2022-11-11T16:48:52.696Z,99.90
2022-11-11T16:51:25.230Z,99.90
2022-11-11T16:53:57.817Z,99.90
2022-11-11T16:56:30.863Z,99.90
2022-11-11T16:59:07.491Z,99.90
2022-11-11T17:01:44.288Z,99.90
2022-11-11T17:04:13.196Z,99.90
2022-11-11T17:06:55.288Z,99.90
2022-11-11T17:09:34.016Z,99.90
2022-11-11T17:12:02.177Z,99.90
